Time;durP1;ratioP1;P1;durP2;ratioP2;P2;SDS_P1;SDS_P2;PMS_P1;PMS_P2;Temp;Humidity;BMP_temperature;BMP_pressure;BME280_temperature;BME280_humidity;BME280_pressure;Samples;Min_cycle;Max_cycle;Signal;HPM_P1;HPM_P2
2022/04/12 00:00:17;;;;;;;23.20;7.63;;;;;;;1.51;73.34;101354.53;4995498;28;20057;-57
2022/04/12 00:02:46;;;;;;;17.23;6.35;;;;;;;1.46;73.86;101350.94;4994851;28;20652;-57
2022/04/12 00:05:14;;;;;;;18.80;6.65;;;;;;;1.42;73.95;101344.81;4995220;28;20061;-57
2022/04/12 00:07:44;;;;;;;19.35;7.43;;;;;;;1.41;73.98;101345.66;4995153;28;20427;-57
2022/04/12 00:10:14;;;;;;;15.23;6.25;;;;;;;1.38;74.33;101352.31;4995201;28;20349;-57
2022/04/12 00:12:43;;;;;;;16.27;6.65;;;;;;;1.32;74.31;101346.97;4995382;28;20049;-55
2022/04/12 00:15:11;;;;;;;21.27;6.97;;;;;;;1.26;74.13;101342.50;4999537;28;20050;-56
2022/04/12 00:20:27;;;;;;;18.23;6.47;;;;;;;1.14;74.79;101344.59;4994022;28;20057;-57
2022/04/12 00:22:57;;;;;;;13.40;6.20;;;;;;;1.09;75.08;101344.41;4995525;28;20096;-57
2022/04/12 00:25:28;;;;;;;15.65;7.32;;;;;;;1.07;75.11;101346.03;4995177;28;20053;-57
2022/04/12 00:27:57;;;;;;;16.05;6.18;;;;;;;1.01;75.66;101348.31;4994694;28;20439;-57
2022/04/12 00:30:27;;;;;;;14.18;6.20;;;;;;;0.99;75.78;101344.81;4994573;28;20046;-57
2022/04/12 00:32:59;;;;;;;14.25;5.60;;;;;;;0.96;75.76;101337.03;4995177;28;20054;-57
2022/04/12 00:35:28;;;;;;;12.55;5.97;;;;;;;0.93;76.23;101342.03;4995069;28;20050;-57
2022/04/12 00:37:55;;;;;;;10.90;5.38;;;;;;;0.92;75.91;101345.38;4997083;28;20065;-57
2022/04/12 00:40:25;;;;;;;16.13;5.68;;;;;;;0.94;75.96;101348.88;5014417;28;20497;-57
2022/04/12 00:42:56;;;;;;;14.02;5.40;;;;;;;0.95;75.92;101345.50;5014515;28;20667;-56
2022/04/12 00:45:24;;;;;;;11.70;4.38;;;;;;;0.95;75.97;101350.63;5002195;28;20066;-56
2022/04/12 00:47:54;;;;;;;10.60;4.13;;;;;;;0.96;76.12;101354.91;4994577;28;20403;-56
2022/04/12 00:50:21;;;;;;;12.75;4.30;;;;;;;0.99;76.21;101355.03;4994835;28;20050;-57
2022/04/12 00:52:55;;;;;;;13.27;4.55;;;;;;;1.03;76.86;101354.34;4994986;28;20058;-56
2022/04/12 00:55:22;;;;;;;10.07;4.75;;;;;;;1.08;76.57;101363.09;4994767;28;20065;-56
2022/04/12 00:57:51;;;;;;;11.68;4.72;;;;;;;1.14;76.74;101357.34;4994915;28;20082;-56
2022/04/12 01:00:19;;;;;;;13.77;4.43;;;;;;;1.16;76.68;101351.50;4994620;28;20076;-55
2022/04/12 01:02:47;;;;;;;12.93;4.70;;;;;;;1.20;76.80;101353.34;5000969;28;20403;-56
2022/04/12 01:05:15;;;;;;;12.45;4.35;;;;;;;1.22;76.73;101361.94;4994734;28;20050;-56
2022/04/12 01:07:44;;;;;;;12.80;4.20;;;;;;;1.25;76.74;101353.53;4994062;28;20471;-56
2022/04/12 01:10:15;;;;;;;10.07;4.43;;;;;;;1.28;76.78;101363.88;4994481;28;20077;-56
2022/04/12 01:12:46;;;;;;;11.57;4.72;;;;;;;1.31;76.50;101360.56;4994425;28;20050;-56
2022/04/12 01:15:15;;;;;;;16.52;6.05;;;;;;;1.33;76.23;101361.50;4994098;28;20063;-58
2022/04/12 01:17:44;;;;;;;11.80;4.35;;;;;;;1.35;76.08;101367.53;4994706;28;20086;-55
2022/04/12 01:20:13;;;;;;;9.60;3.78;;;;;;;1.37;75.97;101371.00;4994530;28;20065;-54
2022/04/12 01:22:49;;;;;;;12.07;4.20;;;;;;;1.37;75.83;101371.00;4994380;28;20054;-57
2022/04/12 01:25:19;;;;;;;9.40;3.97;;;;;;;1.37;75.66;101371.88;4994481;28;20046;-57
2022/04/12 01:27:47;;;;;;;11.35;4.10;;;;;;;1.33;75.51;101371.72;5010501;28;20073;-57
2022/04/12 01:30:22;;;;;;;12.70;4.63;;;;;;;1.30;75.40;101369.03;5004188;28;20450;-57
2022/04/12 01:32:52;;;;;;;19.27;6.43;;;;;;;1.23;75.19;101373.03;4993808;28;20480;-55
2022/04/12 01:35:20;;;;;;;9.57;4.05;;;;;;;1.18;75.08;101375.41;4994140;28;20066;-57
2022/04/12 01:37:48;;;;;;;13.65;5.28;;;;;;;1.11;74.91;101383.63;4994262;28;20054;-57
2022/04/12 01:40:20;;;;;;;14.60;4.57;;;;;;;1.04;75.02;101380.75;4993771;28;20058;-57
2022/04/12 01:42:48;;;;;;;12.60;4.68;;;;;;;0.97;75.29;101388.97;4994170;28;20056;-57
2022/04/12 01:45:16;;;;;;;12.05;4.53;;;;;;;0.88;75.07;101384.38;4993829;28;20054;-57
2022/04/12 01:47:44;;;;;;;10.80;5.22;;;;;;;0.82;75.56;101392.66;4993536;28;20637;-57
2022/04/12 01:50:12;;;;;;;15.02;5.20;;;;;;;0.76;75.93;101386.41;4994988;28;20050;-57
2022/04/12 01:52:40;;;;;;;14.38;5.40;;;;;;;0.69;75.58;101384.41;4992015;28;20054;-56
2022/04/12 01:55:09;;;;;;;16.38;5.50;;;;;;;0.63;75.70;101382.50;4993539;28;20424;-57
2022/04/12 01:57:38;;;;;;;13.90;5.13;;;;;;;0.58;75.96;101379.75;4993779;28;20065;-56
2022/04/12 02:00:08;;;;;;;11.50;5.22;;;;;;;0.54;76.23;101377.88;4993882;28;20054;-57
2022/04/12 02:02:36;;;;;;;25.27;5.60;;;;;;;0.52;76.23;101373.47;4993992;28;20432;-57
2022/04/12 02:05:04;;;;;;;18.88;5.85;;;;;;;0.47;76.55;101386.03;4991938;28;20443;-57
2022/04/12 02:07:32;;;;;;;13.25;4.60;;;;;;;0.44;76.63;101380.81;4992814;28;20058;-57
2022/04/12 02:09:59;;;;;;;12.43;5.30;;;;;;;0.41;76.97;101385.78;4993625;28;20065;-57
2022/04/12 02:12:27;;;;;;;12.07;5.07;;;;;;;0.40;77.13;101390.81;4993341;28;20388;-57
2022/04/12 02:14:56;;;;;;;11.60;4.25;;;;;;;0.38;77.52;101385.66;4993395;28;20065;-57
2022/04/12 02:17:24;;;;;;;12.45;4.90;;;;;;;0.38;77.59;101389.88;5009022;28;20466;-55
2022/04/12 02:19:52;;;;;;;13.95;4.85;;;;;;;0.35;77.54;101390.63;5013171;28;20482;-54
2022/04/12 02:22:19;;;;;;;12.57;4.50;;;;;;;0.34;77.76;101395.66;5008358;28;20046;-56
2022/04/12 02:24:50;;;;;;;9.27;3.92;;;;;;;0.34;77.70;101401.63;4993382;28;20495;-57
2022/04/12 02:27:17;;;;;;;14.80;3.95;;;;;;;0.37;78.78;101404.31;4993622;28;20065;-57
2022/04/12 02:29:45;;;;;;;12.00;3.72;;;;;;;0.42;79.39;101397.72;4993228;28;20428;-57
2022/04/12 02:32:14;;;;;;;8.38;4.03;;;;;;;0.50;79.93;101396.38;4993144;28;20057;-57
2022/04/12 02:34:44;;;;;;;14.43;4.80;;;;;;;0.58;80.19;101399.28;4993428;28;20070;-57
2022/04/12 02:37:12;;;;;;;28.35;12.25;;;;;;;0.63;80.30;101403.78;4992876;28;20416;-57
2022/04/12 02:39:40;;;;;;;81.93;32.65;;;;;;;0.66;80.60;101407.25;4993204;28;20046;-57
2022/04/12 02:42:08;;;;;;;83.93;29.80;;;;;;;0.67;80.35;101414.09;4993282;28;20043;-57
2022/04/12 02:44:36;;;;;;;54.97;17.98;;;;;;;0.67;80.59;101409.88;4997105;28;20054;-57
2022/04/12 02:47:04;;;;;;;25.05;8.70;;;;;;;0.67;80.62;101414.97;4997542;28;20058;-56
2022/04/12 02:49:36;;;;;;;59.42;17.77;;;;;;;0.67;80.43;101412.44;4996774;28;20058;-55
2022/04/12 02:52:04;;;;;;;81.78;25.38;;;;;;;0.66;80.35;101412.38;4996811;28;20108;-57
2022/04/12 02:54:32;;;;;;;36.63;11.85;;;;;;;0.66;80.47;101422.56;4996933;28;20081;-57
2022/04/12 02:57:00;;;;;;;14.95;6.25;;;;;;;0.67;80.33;101420.09;4996479;28;20051;-55
2022/04/12 02:59:28;;;;;;;12.80;4.65;;;;;;;0.68;80.27;101420.97;4996800;28;20054;-57
2022/04/12 03:01:55;;;;;;;8.93;3.95;;;;;;;0.70;80.42;101419.34;4996772;28;20057;-57
2022/04/12 03:04:23;;;;;;;14.30;4.43;;;;;;;0.72;80.90;101420.28;4996574;28;20069;-57
2022/04/12 03:06:55;;;;;;;14.05;4.25;;;;;;;0.73;80.68;101422.03;4996223;28;20408;-57
2022/04/12 03:09:23;;;;;;;8.48;3.80;;;;;;;0.75;80.87;101417.84;4996831;28;20058;-57
2022/04/12 03:11:52;;;;;;;10.88;3.25;;;;;;;0.76;80.84;101420.47;4996358;28;20070;-57
2022/04/12 03:14:20;;;;;;;10.32;3.30;;;;;;;0.80;80.87;101421.47;4996346;28;20156;-57
2022/04/12 03:16:47;;;;;;;11.18;3.92;;;;;;;0.83;80.64;101421.59;4995801;28;20069;-57
2022/04/12 03:19:17;;;;;;;13.27;2.85;;;;;;;0.85;80.64;101417.44;4996281;28;20054;-57
2022/04/12 03:21:54;;;;;;;12.13;3.33;;;;;;;0.89;80.70;101427.81;4996272;28;20051;-56
2022/04/12 03:24:23;;;;;;;10.13;3.45;;;;;;;0.91;80.51;101417.69;4996214;28;20050;-56
2022/04/12 03:26:53;;;;;;;6.30;3.55;;;;;;;0.94;80.52;101425.47;5014328;28;20058;-57
2022/04/12 03:29:21;;;;;;;8.50;3.83;;;;;;;0.96;80.60;101423.84;5015980;28;20128;-55
2022/04/12 03:31:48;;;;;;;14.18;4.63;;;;;;;0.99;80.59;101429.06;4999881;28;20411;-57
2022/04/12 03:34:18;;;;;;;10.23;4.22;;;;;;;1.01;80.42;101431.69;4995546;28;20062;-57
2022/04/12 03:36:45;;;;;;;12.65;4.00;;;;;;;1.03;80.28;101425.84;4995665;28;20454;-57
2022/04/12 03:39:17;;;;;;;10.55;3.58;;;;;;;1.03;80.27;101425.84;4995205;28;20058;-57
2022/04/12 03:41:47;;;;;;;9.38;3.75;;;;;;;1.04;80.40;101437.81;4995724;28;20105;-54
2022/04/12 03:44:14;;;;;;;15.40;4.38;;;;;;;1.05;80.27;101429.34;4995983;28;20042;-56
2022/04/12 03:46:44;;;;;;;10.35;3.53;;;;;;;1.06;80.29;101436.19;4993617;28;20057;-53
2022/04/12 03:49:12;;;;;;;16.80;4.07;;;;;;;1.07;80.36;101437.94;5000253;28;20194;-54
2022/04/12 03:51:39;;;;;;;10.35;4.03;;;;;;;1.09;80.09;101426.13;4984578;28;20054;-57
2022/04/12 03:54:07;;;;;;;13.80;4.18;;;;;;;1.10;80.30;101432.09;4976759;28;20054;-55
2022/04/12 03:56:35;;;;;;;10.20;4.57;;;;;;;1.11;80.19;101446.59;4985211;28;20514;-55
2022/04/12 03:59:04;;;;;;;10.50;3.90;;;;;;;1.12;80.19;101446.66;4996151;28;20157;-54
2022/04/12 04:01:32;;;;;;;11.30;4.50;;;;;;;1.14;80.52;101445.06;4996431;28;20051;-56
2022/04/12 04:04:02;;;;;;;11.23;4.30;;;;;;;1.16;80.08;101440.88;4996282;28;20065;-57
2022/04/12 04:06:30;;;;;;;9.18;4.28;;;;;;;1.17;80.24;101440.06;4995717;28;20054;-57
2022/04/12 04:08:58;;;;;;;9.07;3.35;;;;;;;1.18;80.21;101441.81;5002830;28;20057;-56
2022/04/12 04:11:25;;;;;;;10.73;4.00;;;;;;;1.22;79.95;101438.56;5012339;28;20046;-57
2022/04/12 04:13:53;;;;;;;13.48;3.70;;;;;;;1.24;80.22;101442.06;4995783;28;20082;-57
2022/04/12 04:16:23;;;;;;;13.77;4.63;;;;;;;1.29;80.11;101449.03;4994729;28;20059;-57
2022/04/12 04:18:50;;;;;;;12.55;4.82;;;;;;;1.32;80.14;101451.69;4995544;28;20108;-57
2022/04/12 04:21:20;;;;;;;13.40;4.25;;;;;;;1.37;80.11;101452.75;4995280;28;20055;-57
2022/04/12 04:23:48;;;;;;;15.55;4.53;;;;;;;1.42;80.23;101461.47;4996119;28;20057;-57
2022/04/12 04:26:16;;;;;;;11.45;3.92;;;;;;;1.46;79.98;101463.34;4995334;28;20054;-57
2022/04/12 04:28:44;;;;;;;11.50;4.97;;;;;;;1.52;80.03;101471.25;4995075;28;20399;-57
2022/04/12 04:31:12;;;;;;;15.05;4.50;;;;;;;1.57;79.97;101467.22;4995405;28;20054;-57
2022/04/12 04:33:41;;;;;;;13.13;5.00;;;;;;;1.62;79.65;101468.28;4995456;28;20061;-57
2022/04/12 04:36:09;;;;;;;17.20;5.40;;;;;;;1.70;79.97;101472.00;4995292;28;20065;-57
2022/04/12 04:38:37;;;;;;;12.15;5.25;;;;;;;1.83;80.23;101471.66;4995443;28;20128;-57
2022/04/12 04:41:05;;;;;;;11.75;5.40;;;;;;;2.04;80.78;101473.28;4995170;28;20336;-57
2022/04/12 04:43:33;;;;;;;14.52;4.80;;;;;;;2.32;80.82;101465.84;4995254;28;20057;-57
2022/04/12 04:46:01;;;;;;;14.85;4.60;;;;;;;2.72;80.47;101474.97;4994937;28;20486;-56
2022/04/12 04:48:31;;;;;;;13.07;4.60;;;;;;;3.18;79.74;101482.53;4995247;28;20054;-57
2022/04/12 04:51:00;;;;;;;13.02;5.18;;;;;;;3.69;78.94;101478.25;4995100;28;20050;-57
2022/04/12 04:53:28;;;;;;;13.90;6.50;;;;;;;4.23;76.96;101483.31;4994555;28;20452;-56
2022/04/12 04:55:57;;;;;;;21.83;7.78;;;;;;;4.74;75.71;101481.34;4979037;28;20062;-57
2022/04/12 04:58:25;;;;;;;23.75;9.02;;;;;;;5.23;73.74;101480.06;4994473;28;20456;-57
2022/04/12 05:00:53;;;;;;;24.30;8.43;;;;;;;5.67;71.98;101478.56;4994971;28;20057;-58
2022/04/12 05:03:21;;;;;;;25.70;9.57;;;;;;;6.05;70.83;101483.75;4994598;28;20065;-57
2022/04/12 05:05:48;;;;;;;34.92;13.25;;;;;;;6.38;68.85;101487.91;4993975;28;20480;-58
2022/04/12 05:08:17;;;;;;;31.75;11.20;;;;;;;6.64;67.74;101491.88;4994508;28;20058;-56
2022/04/12 05:10:47;;;;;;;22.20;8.00;;;;;;;6.92;67.02;101494.16;4994472;28;20086;-57
2022/04/12 05:13:15;;;;;;;18.52;6.78;;;;;;;7.23;65.78;101498.13;4994326;28;20058;-58
2022/04/12 05:15:42;;;;;;;17.90;6.85;;;;;;;7.59;64.60;101497.91;4993765;28;20066;-56
2022/04/12 05:18:10;;;;;;;29.30;8.73;;;;;;;7.98;63.54;101499.34;4994485;28;20065;-56
2022/04/12 05:20:38;;;;;;;18.88;6.30;;;;;;;8.42;62.28;101505.16;4994056;28;20482;-54
2022/04/12 05:23:06;;;;;;;12.73;3.72;;;;;;;8.84;61.03;101507.41;4994069;28;20042;-58
2022/04/12 05:25:35;;;;;;;12.35;3.15;;;;;;;9.25;59.29;101504.34;4994038;28;20392;-58
2022/04/12 05:28:03;;;;;;;11.50;3.63;;;;;;;9.63;58.40;101514.19;4994487;28;20061;-58
2022/04/12 05:30:31;;;;;;;13.20;3.78;;;;;;;9.94;57.26;101510.97;4993999;28;20050;-58
2022/04/12 05:32:59;;;;;;;9.02;3.50;;;;;;;10.27;55.72;101520.69;4994070;28;20426;-56
2022/04/12 05:35:27;;;;;;;9.55;3.60;;;;;;;10.64;54.59;101520.88;4993825;28;20065;-57
2022/04/12 05:37:55;;;;;;;11.63;4.38;;;;;;;11.03;53.77;101525.34;4994230;28;20050;-57
2022/04/12 05:40:26;;;;;;;15.80;4.50;;;;;;;11.46;52.01;101522.81;4993711;28;20443;-57
2022/04/12 05:42:55;;;;;;;10.13;3.33;;;;;;;11.90;49.98;101523.69;4993922;28;20501;-57
2022/04/12 05:45:25;;;;;;;11.48;4.78;;;;;;;12.34;49.78;101530.53;5001531;28;20411;-56
2022/04/12 05:47:54;;;;;;;11.18;3.60;;;;;;;12.83;48.46;101530.38;5013010;28;20541;-57
2022/04/12 05:50:23;;;;;;;10.70;3.75;;;;;;;13.23;47.25;101531.91;4974742;28;20058;-57
2022/04/12 05:52:51;;;;;;;10.63;3.58;;;;;;;13.69;45.50;101530.72;4974754;28;20057;-57
2022/04/12 05:55:21;;;;;;;9.35;3.22;;;;;;;14.07;43.76;101540.81;4974653;28;20047;-57
2022/04/12 05:57:55;;;;;;;13.30;3.63;;;;;;;14.45;42.99;101536.06;4989131;28;20125;-57
2022/04/12 06:00:25;;;;;;;11.95;4.78;;;;;;;14.88;41.71;101556.41;4993803;28;20579;-57
2022/04/12 06:02:55;;;;;;;12.35;4.50;;;;;;;15.29;41.08;101555.00;4994015;28;20046;-58
2022/04/12 06:05:26;;;;;;;18.17;4.07;;;;;;;15.74;39.14;101553.47;4994006;28;20057;-58
2022/04/12 06:07:53;;;;;;;12.13;3.80;;;;;;;16.14;38.29;101553.63;4994027;28;20066;-58
2022/04/12 06:10:22;;;;;;;12.25;4.10;;;;;;;16.55;37.63;101557.19;4993799;28;20519;-58
2022/04/12 06:12:51;;;;;;;11.18;4.00;;;;;;;16.83;36.02;101558.41;4990415;28;20053;-62
2022/04/12 06:15:19;;;;;;;14.10;4.30;;;;;;;17.17;35.70;101557.66;4990815;28;20070;-59
2022/04/12 06:17:48;;;;;;;14.73;5.05;;;;;;;17.66;35.37;101558.28;4995139;28;20058;-54
2022/04/12 06:20:17;;;;;;;10.30;3.90;;;;;;;18.19;34.26;101557.81;4986354;28;20157;-60
2022/04/12 06:22:45;;;;;;;12.32;3.45;;;;;;;18.72;33.60;101561.59;4997666;28;20117;-58
2022/04/12 06:25:16;;;;;;;10.45;3.10;;;;;;;19.19;31.74;101567.22;4995783;28;20515;-56
2022/04/12 06:27:50;;;;;;;9.00;3.88;;;;;;;19.54;31.18;101572.28;4997708;28;20430;-58
2022/04/12 06:30:19;;;;;;;8.38;3.78;;;;;;;20.07;31.11;101576.66;4981726;28;20055;-57
2022/04/12 06:32:49;;;;;;;8.25;3.30;;;;;;;20.66;30.30;101576.34;4997188;28;20054;-60
2022/04/12 06:35:17;;;;;;;8.75;2.90;;;;;;;21.17;29.20;101573.53;4997152;28;20483;-61
2022/04/12 06:37:47;;;;;;;11.23;2.97;;;;;;;21.69;27.88;101574.13;4997248;28;20460;-59
2022/04/12 06:40:19;;;;;;;7.72;2.50;;;;;;;22.23;27.46;101572.72;4998609;28;20050;-62
2022/04/12 06:42:47;;;;;;;8.48;2.90;;;;;;;22.53;26.41;101573.19;4997229;28;20054;-66
2022/04/12 06:45:17;;;;;;;9.43;3.35;;;;;;;22.93;25.82;101572.28;4998239;28;20051;-60
2022/04/12 06:47:52;;;;;;;6.10;2.70;;;;;;;23.36;24.49;101583.44;4998046;28;20435;-58
2022/04/12 06:50:21;;;;;;;9.80;3.20;;;;;;;23.71;24.04;101579.13;4996777;28;20077;-58
2022/04/12 06:52:52;;;;;;;7.90;3.22;;;;;;;23.79;24.08;101583.09;4996933;28;20046;-57
2022/04/12 06:55:21;;;;;;;7.10;2.97;;;;;;;23.91;23.30;101592.19;4996573;28;20072;-60
2022/04/12 06:57:49;;;;;;;7.20;2.90;;;;;;;24.16;23.22;101583.88;4997196;28;20186;-60
2022/04/12 07:00:20;;;;;;;6.18;3.08;;;;;;;24.52;23.03;101595.25;4996826;28;20042;-61
2022/04/12 07:02:47;;;;;;;7.88;3.00;;;;;;;24.86;22.17;101590.78;4996734;28;20046;-58
2022/04/12 07:05:15;;;;;;;10.52;3.30;;;;;;;24.90;21.50;101584.38;4997002;28;20391;-59
2022/04/12 07:07:48;;;;;;;7.85;3.17;;;;;;;24.86;20.56;101588.97;4997542;28;20116;-59
2022/04/12 07:10:16;;;;;;;16.47;4.30;;;;;;;24.81;21.49;101590.19;4981151;28;20471;-57
2022/04/12 07:12:44;;;;;;;10.02;3.53;;;;;;;24.79;20.36;101592.91;4996990;28;20117;-62
2022/04/12 07:15:15;;;;;;;9.32;3.63;;;;;;;24.74;20.82;101591.44;4996627;28;20046;-57
2022/04/12 07:17:43;;;;;;;7.00;3.80;;;;;;;25.04;20.89;101597.78;4997892;28;20116;-56
2022/04/12 07:20:11;;;;;;;6.57;2.92;;;;;;;25.15;20.84;101600.69;4997239;28;20468;-58
2022/04/12 07:22:42;;;;;;;9.68;3.50;;;;;;;25.36;20.04;101603.06;4996370;28;20052;-60
2022/04/12 07:25:17;;;;;;;7.35;2.85;;;;;;;25.47;19.99;101608.63;4996406;28;20065;-58
2022/04/12 07:27:50;;;;;;;8.93;3.20;;;;;;;25.47;19.16;101603.31;4995978;28;20054;-58
2022/04/12 07:30:18;;;;;;;10.02;3.10;;;;;;;25.39;19.12;101608.22;4980227;28;20062;-57
2022/04/12 07:32:52;;;;;;;7.13;2.83;;;;;;;25.53;19.47;101604.81;4995989;28;20062;-57
2022/04/12 07:35:20;;;;;;;6.22;2.95;;;;;;;25.78;19.25;101595.34;4995944;28;20057;-56
2022/04/12 07:37:47;;;;;;;7.50;3.10;;;;;;;25.83;18.85;101607.50;4995996;28;20085;-57
2022/04/12 07:40:20;;;;;;;8.10;3.25;;;;;;;25.74;19.16;101598.28;4996034;28;20050;-55
2022/04/12 07:42:48;;;;;;;6.85;3.38;;;;;;;25.62;19.08;101599.81;4994993;28;20052;-59
2022/04/12 07:45:16;;;;;;;7.45;3.00;;;;;;;25.91;18.79;101599.94;4995978;28;20050;-55
2022/04/12 07:47:47;;;;;;;5.43;2.70;;;;;;;25.88;18.67;101598.31;4996077;28;20054;-53
2022/04/12 07:50:16;;;;;;;6.55;3.30;;;;;;;25.82;18.73;101600.47;4979004;28;20058;-55
2022/04/12 07:52:45;;;;;;;6.10;2.75;;;;;;;25.79;18.47;101597.06;4996830;28;20090;-53
2022/04/12 07:55:13;;;;;;;6.68;3.50;;;;;;;25.96;18.45;101604.03;4995786;28;20135;-60
2022/04/12 07:57:42;;;;;;;14.93;3.83;;;;;;;26.15;18.71;101609.13;4994971;28;20065;-61
2022/04/12 08:00:11;;;;;;;11.73;3.83;;;;;;;26.41;18.33;101605.78;4995769;28;20084;-61
2022/04/12 08:02:38;;;;;;;15.30;4.43;;;;;;;26.58;17.83;101601.25;4995711;28;20057;-57
2022/04/12 08:05:08;;;;;;;8.27;3.55;;;;;;;26.88;17.95;101598.47;4996016;28;20057;-60
2022/04/12 08:07:34;;;;;;;10.10;3.80;;;;;;;27.02;17.57;101604.66;4996631;28;20109;-62
2022/04/12 08:10:03;;;;;;;5.85;3.20;;;;;;;27.02;17.66;101607.31;4995265;28;20086;-63
2022/04/12 08:12:31;;;;;;;8.00;3.53;;;;;;;26.87;17.63;101605.59;4994820;28;20061;-58
2022/04/12 08:15:05;;;;;;;7.30;3.13;;;;;;;26.85;17.54;101599.53;4995313;28;20046;-56
2022/04/12 08:17:33;;;;;;;9.50;3.50;;;;;;;26.78;17.31;101603.53;4956603;28;20138;-56
2022/04/12 08:20:01;;;;;;;8.23;3.25;;;;;;;26.68;17.69;101603.25;4956441;29;20051;-56
2022/04/12 08:22:29;;;;;;;7.22;3.83;;;;;;;26.85;17.36;101604.00;4956352;28;20058;-57
2022/04/12 08:24:57;;;;;;;6.05;3.50;;;;;;;26.94;17.36;101604.25;4956174;29;20483;-58
2022/04/12 08:27:25;;;;;;;8.55;3.25;;;;;;;26.93;17.44;101602.56;4956574;28;20059;-56
2022/04/12 08:29:53;;;;;;;8.40;3.08;;;;;;;27.07;17.53;101608.88;4956105;29;20069;-57
2022/04/12 08:32:22;;;;;;;7.75;3.20;;;;;;;27.01;16.85;101602.94;4956263;28;20470;-57
2022/04/12 08:34:49;;;;;;;5.40;2.78;;;;;;;26.98;17.34;101600.50;4956215;29;20059;-55
2022/04/12 08:37:15;;;;;;;11.75;3.85;;;;;;;26.81;17.07;101606.00;4955635;28;20058;-56
2022/04/12 08:39:59;;;;;;;6.38;2.78;;;;;;;26.82;17.44;101599.72;4957175;28;20113;-54
2022/04/12 08:42:26;;;;;;;;;;;;;;;26.56;17.03;101592.53;4942020;29;20051;-56
2022/04/12 08:44:54;;;;;;;5.07;2.80;;;;;;;26.54;16.88;101607.72;4956448;29;19938;-57
2022/04/12 08:47:27;;;;;;;12.02;3.20;;;;;;;26.20;16.57;101604.41;4956669;28;20047;-56
2022/04/12 08:49:56;;;;;;;7.30;2.35;;;;;;;25.88;16.40;101610.75;4956194;29;20067;-60
2022/04/12 08:52:25;;;;;;;6.15;1.98;;;;;;;25.72;16.47;101606.34;4955872;28;20534;-58
2022/04/12 08:54:53;;;;;;;4.20;2.05;;;;;;;25.64;16.29;101621.81;4955908;29;20381;-58
2022/04/12 08:57:20;;;;;;;5.07;2.00;;;;;;;25.30;15.37;101609.59;4956371;28;20131;-59
2022/04/12 08:59:48;;;;;;;10.77;2.03;;;;;;;24.74;15.85;101615.31;4957378;28;20126;-58
2022/04/12 09:02:25;;;;;;;4.43;1.65;;;;;;;24.46;15.93;101611.50;4940096;29;20043;-55
2022/04/12 09:04:58;;;;;;;3.10;1.10;;;;;;;24.26;16.06;101608.97;4956222;28;20047;-57
2022/04/12 09:07:28;;;;;;;5.50;1.50;;;;;;;24.06;16.30;101611.78;4955795;29;20093;-52
2022/04/12 09:10:06;;;;;;;6.30;2.00;;;;;;;23.69;16.74;101613.59;4956637;28;20086;-51
2022/04/12 09:12:35;;;;;;;6.60;1.75;;;;;;;23.16;17.21;101609.06;4956077;28;20054;-56
2022/04/12 09:15:02;;;;;;;4.05;1.73;;;;;;;22.92;17.73;101612.84;4955659;28;20051;-54
2022/04/12 09:17:34;;;;;;;6.15;1.77;;;;;;;22.57;18.17;101609.97;4956076;28;20051;-49
2022/04/12 09:20:06;;;;;;;6.72;2.08;;;;;;;22.36;17.54;101610.88;4956036;28;20070;-54
2022/04/12 09:22:35;;;;;;;3.45;1.70;;;;;;;22.21;18.14;101606.28;4955396;28;20384;-57
2022/04/12 09:25:06;;;;;;;4.55;1.98;;;;;;;22.09;17.72;101606.81;4955612;29;20055;-58
2022/04/12 09:27:35;;;;;;;3.42;1.60;;;;;;;21.82;18.10;101609.63;4955244;28;20051;-57
2022/04/12 09:30:05;;;;;;;3.75;1.40;;;;;;;21.77;18.75;101605.47;4954827;29;20566;-58
2022/04/12 09:32:37;;;;;;;3.20;1.38;;;;;;;21.76;18.68;101599.31;4955432;29;20070;-58
2022/04/12 09:35:09;;;;;;;4.25;1.95;;;;;;;21.70;18.52;101603.06;4954699;28;20506;-58
2022/04/12 09:37:38;;;;;;;5.25;1.70;;;;;;;21.54;18.11;101609.03;4955293;28;20065;-58
2022/04/12 09:40:08;;;;;;;3.28;1.80;;;;;;;21.47;17.93;101607.56;4955214;29;20066;-59
2022/04/12 09:42:46;;;;;;;6.38;1.48;;;;;;;21.33;18.78;101603.69;4954656;29;20453;-59
2022/04/12 09:45:15;;;;;;;6.05;1.38;;;;;;;21.34;19.28;101613.34;4955373;28;20051;-58
2022/04/12 09:47:51;;;;;;;4.05;1.30;;;;;;;21.27;19.34;101617.09;4955332;28;20055;-58
2022/04/12 09:50:21;;;;;;;31.15;2.85;;;;;;;21.00;19.49;101624.25;4955413;29;20108;-58
2022/04/12 09:52:54;;;;;;;6.68;1.50;;;;;;;20.79;19.70;101615.34;4954720;28;20403;-58
2022/04/12 09:55:37;;;;;;;2.88;1.40;;;;;;;20.66;19.35;101619.38;4955243;29;20058;-58
2022/04/12 09:58:07;;;;;;;4.38;1.23;;;;;;;20.44;19.44;101602.63;4951682;29;20059;-58
2022/04/12 10:00:36;;;;;;;4.72;1.00;;;;;;;20.23;20.46;101612.06;4954517;28;20055;-57
2022/04/12 10:03:05;;;;;;;2.42;0.93;;;;;;;20.14;20.72;101615.88;4954364;28;20066;-55
2022/04/12 10:05:38;;;;;;;6.50;2.33;;;;;;;20.07;21.54;101609.09;4953617;29;20069;-58
2022/04/12 10:08:11;;;;;;;6.53;1.60;;;;;;;20.06;21.08;101611.78;4954527;28;20543;-57
2022/04/12 10:10:41;;;;;;;8.65;1.85;;;;;;;19.98;20.96;101617.31;4955030;28;20718;-56
2022/04/12 10:13:11;;;;;;;2.35;1.20;;;;;;;19.96;20.70;101621.78;4954567;28;20058;-55
2022/04/12 10:15:40;;;;;;;3.40;1.30;;;;;;;19.93;20.32;101616.63;4963717;28;20058;-51
2022/04/12 10:18:09;;;;;;;3.35;1.33;;;;;;;19.97;20.38;101618.22;4993124;28;20410;-56
2022/04/12 10:20:44;;;;;;;3.05;1.30;;;;;;;20.08;20.00;101612.59;4993318;28;20501;-56
2022/04/12 10:23:13;;;;;;;5.57;1.50;;;;;;;20.03;20.67;101612.75;4994182;28;20057;-52
2022/04/12 10:25:42;;;;;;;3.33;1.27;;;;;;;19.98;20.79;101612.06;4994620;28;20050;-54
2022/04/12 10:28:11;;;;;;;3.72;1.23;;;;;;;20.00;21.00;101612.00;4993647;28;20069;-55
2022/04/12 10:30:39;;;;;;;5.20;1.40;;;;;;;20.03;20.81;101618.03;4994651;28;20058;-55
2022/04/12 10:33:09;;;;;;;3.17;1.67;;;;;;;20.04;21.67;101614.47;4993616;28;20046;-57
2022/04/12 10:36:03;;;;;;;7.22;1.98;;;;;;;20.16;22.24;101623.72;4994134;28;20057;-58
2022/04/12 10:38:42;;;;;;;11.10;3.08;;;;;;;20.25;22.42;101612.03;4979989;28;20058;-60
2022/04/12 10:41:23;;;;;;;15.07;3.10;;;;;;;20.25;22.78;101622.53;4994160;28;20054;-58
2022/04/12 10:43:56;;;;;;;10.07;2.85;;;;;;;20.16;23.26;101608.78;4993967;28;20054;-57
2022/04/12 10:46:24;;;;;;;10.40;3.20;;;;;;;19.85;23.51;101613.38;4979052;28;20065;-55
2022/04/12 10:49:09;;;;;;;10.23;3.33;;;;;;;19.60;24.25;101615.06;4992623;28;20054;-58
2022/04/12 10:51:40;;;;;;;11.15;3.28;;;;;;;19.25;24.56;101614.38;4993934;28;20104;-56
2022/04/12 10:54:29;;;;;;;8.32;3.45;;;;;;;18.65;24.44;101624.84;4993327;28;20046;-58
2022/04/12 10:57:26;;;;;;;8.82;3.20;;;;;;;18.14;25.48;101615.66;4993418;28;20109;-57
2022/04/12 10:59:59;;;;;;;9.75;3.22;;;;;;;17.78;25.61;101620.06;4987698;28;20631;-56
2022/04/12 11:02:31;;;;;;;9.70;3.15;;;;;;;17.48;26.16;101624.22;4993116;28;20076;-54
2022/04/12 11:05:01;;;;;;;8.63;3.40;;;;;;;17.31;26.52;101618.50;4985614;28;20052;-58
2022/04/12 11:07:36;;;;;;;7.38;2.67;;;;;;;17.21;27.00;101622.22;4996928;28;20084;-54
2022/04/12 11:10:25;;;;;;;6.85;2.95;;;;;;;16.99;27.15;101622.66;4996966;28;20058;-54
2022/04/12 11:13:05;;;;;;;10.45;2.85;;;;;;;16.86;27.15;101615.09;4996594;28;20062;-54
2022/04/12 11:15:35;;;;;;;9.57;3.10;;;;;;;16.76;27.40;101617.03;4990220;28;20420;-54
2022/04/12 11:18:08;;;;;;;7.32;3.08;;;;;;;16.60;27.79;101616.41;4990626;28;20046;-53
2022/04/12 11:20:38;;;;;;;9.07;3.08;;;;;;;16.56;28.02;101619.13;4993700;28;20050;-51
2022/04/12 11:23:14;;;;;;;7.32;2.67;;;;;;;16.62;28.00;101616.38;4996695;28;20074;-50
2022/04/12 11:25:50;;;;;;;9.10;3.22;;;;;;;16.63;28.36;101618.97;4996156;28;20065;-51
2022/04/12 11:28:25;;;;;;;8.38;3.40;;;;;;;16.53;28.08;101621.78;4995990;28;20483;-53
2022/04/12 11:30:56;;;;;;;7.60;2.83;;;;;;;16.19;28.10;101614.56;4996183;28;20062;-58
2022/04/12 11:33:26;;;;;;;9.77;2.80;;;;;;;15.93;28.54;101616.75;4996439;28;20051;-55
2022/04/12 11:35:55;;;;;;;8.73;2.92;;;;;;;15.83;28.75;101605.59;4996457;28;20065;-56
2022/04/12 11:38:28;;;;;;;14.00;3.33;;;;;;;15.92;29.39;101612.41;4996201;28;20055;-59